Time;durP1;ratioP1;P1;durP2;ratioP2;P2;SDS_P1;SDS_P2;PMS_P1;PMS_P2;Temp;Humidity;BMP_temperature;BMP_pressure;BME280_temperature;BME280_humidity;BME280_pressure;Samples;Min_cycle;Max_cycle;Signal;HPM_P1;HPM_P2
2023/07/30 00:00:00;;;;;;;23.23;3.50;;;;;;;;;;6254495;28;20513;-80
2023/07/30 00:03:02;;;;;;;7.07;3.25;;;;;;;;;;6254354;28;20052;-78
2023/07/30 00:06:04;;;;;;;6.93;3.13;;;;;;;;;;6251146;28;20084;-78
2023/07/30 00:09:05;;;;;;;6.10;2.88;;;;;;;;;;6256366;28;20051;-79
2023/07/30 00:12:08;;;;;;;3.85;2.92;;;;;;;;;;6250833;28;20182;-78
2023/07/30 00:15:10;;;;;;;4.53;2.73;;;;;;;;;;6250196;28;20410;-77
2023/07/30 00:18:13;;;;;;;3.63;2.70;;;;;;;;;;6248761;28;20109;-76
2023/07/30 00:21:14;;;;;;;5.47;2.90;;;;;;;;;;6252208;28;20047;-77
2023/07/30 00:24:16;;;;;;;3.92;2.78;;;;;;;;;;6252253;28;20483;-81
2023/07/30 00:27:17;;;;;;;4.70;3.30;;;;;;;;;;6244918;28;20176;-78
2023/07/30 00:30:22;;;;;;;6.25;2.90;;;;;;;;;;6249966;28;20049;-78
2023/07/30 00:33:24;;;;;;;4.50;2.92;;;;;;;;;;6231930;28;20041;-78
2023/07/30 00:36:26;;;;;;;6.22;2.97;;;;;;;;;;6243309;28;20037;-78
2023/07/30 00:39:27;;;;;;;4.85;2.78;;;;;;;;;;6247093;28;20511;-78
2023/07/30 00:42:29;;;;;;;4.10;3.13;;;;;;;;;;6247168;28;20060;-79
2023/07/30 00:45:31;;;;;;;4.30;3.30;;;;;;;;;;6251680;28;20118;-80
2023/07/30 00:48:33;;;;;;;4.70;3.22;;;;;;;;;;6245744;28;20406;-78
2023/07/30 00:51:35;;;;;;;4.40;3.22;;;;;;;;;;6237505;28;20057;-79
2023/07/30 00:54:39;;;;;;;4.85;3.22;;;;;;;;;;6251523;28;20042;-80
2023/07/30 00:57:42;;;;;;;9.10;3.13;;;;;;;;;;6250672;28;20068;-79
2023/07/30 01:00:44;;;;;;;5.32;3.63;;;;;;;;;;6231035;28;20386;-79
2023/07/30 01:03:46;;;;;;;5.32;3.22;;;;;;;;;;6238130;28;20155;-77
2023/07/30 01:06:48;;;;;;;4.15;3.20;;;;;;;;;;6234426;28;20087;-79
2023/07/30 01:09:49;;;;;;;3.67;3.28;;;;;;;;;;6240528;28;20044;-79
2023/07/30 01:12:52;;;;;;;3.35;3.05;;;;;;;;;;6231044;28;20450;-79
2023/07/30 01:15:54;;;;;;;5.28;3.38;;;;;;;;;;6256826;28;20049;-79
2023/07/30 01:18:58;;;;;;;4.60;2.73;;;;;;;;;;6237082;28;20128;-77
2023/07/30 01:22:00;;;;;;;4.25;3.03;;;;;;;;;;6232372;28;20045;-76
2023/07/30 01:25:03;;;;;;;4.63;3.03;;;;;;;;;;6236823;28;20115;-78
2023/07/30 01:28:08;;;;;;;4.32;2.80;;;;;;;;;;6253652;28;20068;-79
2023/07/30 01:31:14;;;;;;;4.72;2.90;;;;;;;;;;6250617;28;20044;-78
2023/07/30 01:34:17;;;;;;;3.50;2.67;;;;;;;;;;6237018;28;20041;-77
2023/07/30 01:37:20;;;;;;;5.72;2.72;;;;;;;;;;6241844;28;20100;-79
2023/07/30 01:40:22;;;;;;;5.05;2.80;;;;;;;;;;6254581;28;20077;-80
2023/07/30 01:43:24;;;;;;;5.63;2.80;;;;;;;;;;6252505;28;20109;-80
2023/07/30 01:46:25;;;;;;;3.58;2.85;;;;;;;;;;6257372;28;20044;-80
2023/07/30 01:49:27;;;;;;;3.20;2.83;;;;;;;;;;6249211;28;20049;-78
2023/07/30 01:52:28;;;;;;;4.93;3.15;;;;;;;;;;6260591;28;20056;-78
2023/07/30 01:55:30;;;;;;;5.70;3.03;;;;;;;;;;6274046;28;20052;-78
2023/07/30 01:58:32;;;;;;;6.60;2.97;;;;;;;;;;6244891;28;20042;-79
2023/07/30 02:01:33;;;;;;;8.85;3.50;;;;;;;;;;6240944;28;20164;-79
2023/07/30 02:04:35;;;;;;;6.30;4.07;;;;;;;;;;6255534;28;20499;-79
2023/07/30 02:07:37;;;;;;;7.57;3.83;;;;;;;;;;6233871;28;20068;-78
2023/07/30 02:10:38;;;;;;;4.50;3.38;;;;;;;;;;6253925;28;20049;-79
2023/07/30 02:13:40;;;;;;;3.60;2.95;;;;;;;;;;6252976;28;20423;-80
2023/07/30 02:16:42;;;;;;;4.57;3.10;;;;;;;;;;6236298;28;20041;-80
2023/07/30 02:19:44;;;;;;;8.38;3.20;;;;;;;;;;6249370;28;20040;-79
2023/07/30 02:22:45;;;;;;;5.72;2.90;;;;;;;;;;6253673;28;20040;-79
2023/07/30 02:25:47;;;;;;;4.90;3.10;;;;;;;;;;6238473;28;20048;-80
2023/07/30 02:28:49;;;;;;;4.20;3.10;;;;;;;;;;6252398;28;20045;-79
2023/07/30 02:31:50;;;;;;;3.03;2.70;;;;;;;;;;6253831;28;20040;-77
2023/07/30 02:34:52;;;;;;;5.32;2.92;;;;;;;;;;6253670;28;20041;-78
2023/07/30 02:37:53;;;;;;;6.75;3.25;;;;;;;;;;6251239;28;20071;-79
2023/07/30 02:40:55;;;;;;;4.20;3.50;;;;;;;;;;6252294;28;20037;-79
2023/07/30 02:43:57;;;;;;;4.55;3.42;;;;;;;;;;6232496;28;20499;-78
2023/07/30 02:46:58;;;;;;;4.28;3.30;;;;;;;;;;6256276;28;20041;-80
2023/07/30 02:50:00;;;;;;;3.97;3.17;;;;;;;;;;6255215;28;20056;-80
2023/07/30 02:53:01;;;;;;;4.72;3.10;;;;;;;;;;6258599;28;20060;-77
2023/07/30 02:56:03;;;;;;;4.32;3.03;;;;;;;;;;6240356;28;20044;-77
2023/07/30 02:59:05;;;;;;;4.75;3.10;;;;;;;;;;6256249;28;20099;-77
2023/07/30 03:02:06;;;;;;;3.70;3.33;;;;;;;;;;6235509;28;20059;-78
2023/07/30 03:05:08;;;;;;;4.90;3.50;;;;;;;;;;6236560;28;20049;-78
2023/07/30 03:08:10;;;;;;;5.70;3.10;;;;;;;;;;6240194;28;20426;-77
2023/07/30 03:11:13;;;;;;;4.43;3.40;;;;;;;;;;6237957;28;20076;-79
2023/07/30 03:14:15;;;;;;;6.50;3.10;;;;;;;;;;6257615;28;20094;-78
2023/07/30 03:17:16;;;;;;;4.38;2.80;;;;;;;;;;6240424;28;20044;-79
2023/07/30 03:20:19;;;;;;;3.58;3.05;;;;;;;;;;6245746;28;20093;-78
2023/07/30 03:23:20;;;;;;;4.03;3.15;;;;;;;;;;6256366;28;20373;-80
2023/07/30 03:26:22;;;;;;;6.50;3.08;;;;;;;;;;6239374;28;20056;-79
2023/07/30 03:29:23;;;;;;;5.72;2.95;;;;;;;;;;6239540;28;20037;-81
2023/07/30 03:32:25;;;;;;;2.88;2.63;;;;;;;;;;6251862;28;20056;-79
2023/07/30 03:35:27;;;;;;;4.32;2.85;;;;;;;;;;6252228;28;20136;-80
2023/07/30 03:38:29;;;;;;;5.00;2.50;;;;;;;;;;6229498;28;20037;-80
2023/07/30 03:41:31;;;;;;;4.45;2.95;;;;;;;;;;6252160;28;20058;-80
2023/07/30 03:44:33;;;;;;;3.33;3.03;;;;;;;;;;6261160;28;20070;-80
2023/07/30 03:47:34;;;;;;;3.80;2.80;;;;;;;;;;6252062;28;20183;-77
2023/07/30 03:50:36;;;;;;;4.57;3.10;;;;;;;;;;6255603;28;20045;-77
2023/07/30 03:53:37;;;;;;;3.53;3.03;;;;;;;;;;6257772;28;20046;-78
2023/07/30 03:56:39;;;;;;;3.67;2.83;;;;;;;;;;6221990;28;20052;-78
2023/07/30 03:59:42;;;;;;;6.10;3.63;;;;;;;;;;6247066;28;20045;-76
2023/07/30 04:02:45;;;;;;;4.82;3.50;;;;;;;;;;6264207;28;20045;-77
2023/07/30 04:05:47;;;;;;;4.70;3.95;;;;;;;;;;6276983;28;20164;-76
2023/07/30 04:08:49;;;;;;;6.20;4.43;;;;;;;;;;6259335;28;20045;-76
2023/07/30 04:11:50;;;;;;;5.25;3.60;;;;;;;;;;6254062;28;20045;-77
2023/07/30 04:14:52;;;;;;;4.68;3.45;;;;;;;;;;6243549;28;20041;-77
2023/07/30 04:17:53;;;;;;;4.63;3.00;;;;;;;;;;6238882;28;20052;-77
2023/07/30 04:20:58;;;;;;;11.98;3.97;;;;;;;;;;6251458;28;20187;-76
2023/07/30 04:23:59;;;;;;;4.40;2.72;;;;;;;;;;6256922;28;20045;-76
2023/07/30 04:27:02;;;;;;;5.57;2.80;;;;;;;;;;6257155;28;20045;-78
2023/07/30 04:30:06;;;;;;;3.40;2.90;;;;;;;;;;6239005;28;20361;-77
2023/07/30 04:33:08;;;;;;;3.28;2.92;;;;;;;;;;6258243;28;20049;-77
2023/07/30 04:36:12;;;;;;;5.82;3.60;;;;;;;;;;6257850;28;20048;-76
2023/07/30 04:39:13;;;;;;;4.18;3.20;;;;;;;;;;6241771;28;20049;-77
2023/07/30 04:42:15;;;;;;;4.75;3.55;;;;;;;;;;6252981;28;20077;-78
2023/07/30 04:45:18;;;;;;;3.88;3.15;;;;;;;;;;6240453;28;20114;-76
2023/07/30 04:48:22;;;;;;;4.25;3.13;;;;;;;;;;6261017;28;20053;-78
2023/07/30 04:51:24;;;;;;;4.85;3.45;;;;;;;;;;6242997;28;20507;-78
2023/07/30 04:54:26;;;;;;;4.30;3.35;;;;;;;;;;6257222;28;20045;-78
2023/07/30 04:57:28;;;;;;;5.03;3.55;;;;;;;;;;6258384;28;20043;-78
2023/07/30 05:00:29;;;;;;;8.98;3.38;;;;;;;;;;6238385;28;20086;-78
2023/07/30 05:03:31;;;;;;;4.88;3.17;;;;;;;;;;6238315;28;20045;-78
2023/07/30 05:06:33;;;;;;;4.93;2.90;;;;;;;;;;6259586;28;20059;-78
2023/07/30 05:09:34;;;;;;;5.43;2.85;;;;;;;;;;6255169;28;20041;-77
2023/07/30 05:12:37;;;;;;;4.68;3.03;;;;;;;;;;6255762;28;20545;-77
2023/07/30 05:15:38;;;;;;;3.57;3.17;;;;;;;;;;6257805;28;20052;-77
2023/07/30 05:18:40;;;;;;;4.68;3.47;;;;;;;;;;6257751;28;20067;-76
2023/07/30 05:21:48;;;;;;;3.30;3.00;;;;;;;;;;6241491;28;20056;-78
2023/07/30 05:24:51;;;;;;;4.18;3.50;;;;;;;;;;6258271;28;20077;-77
2023/07/30 05:27:53;;;;;;;4.95;2.72;;;;;;;;;;6236760;28;20045;-78
2023/07/30 05:30:55;;;;;;;4.07;3.03;;;;;;;;;;6256236;28;20262;-76
2023/07/30 05:33:56;;;;;;;4.18;2.80;;;;;;;;;;6257745;28;20099;-78
2023/07/30 05:36:58;;;;;;;5.43;3.08;;;;;;;;;;6237454;28;20491;-78
2023/07/30 05:40:00;;;;;;;4.80;2.80;;;;;;;;;;6259294;28;20090;-78
2023/07/30 05:43:02;;;;;;;2.85;2.40;;;;;;;;;;6253590;28;20041;-77
2023/07/30 05:46:04;;;;;;;4.38;2.60;;;;;;;;;;6259399;28;20045;-77
2023/07/30 05:49:05;;;;;;;3.83;3.00;;;;;;;;;;6238682;28;20053;-78
2023/07/30 05:52:07;;;;;;;6.40;2.75;;;;;;;;;;6254991;28;20131;-77
2023/07/30 05:55:09;;;;;;;4.20;2.92;;;;;;;;;;6256692;28;20060;-77
2023/07/30 05:58:10;;;;;;;3.08;1.65;;;;;;;;;;6253925;28;20049;-75
2023/07/30 06:01:12;;;;;;;3.53;2.42;;;;;;;;;;6255970;28;20045;-76
2023/07/30 06:04:13;;;;;;;3.90;2.22;;;;;;;;;;6268637;28;20049;-77
2023/07/30 06:07:15;;;;;;;5.05;2.70;;;;;;;;;;6276393;28;20519;-77
2023/07/30 06:10:17;;;;;;;3.53;1.67;;;;;;;;;;6256081;28;20487;-77
2023/07/30 06:13:18;;;;;;;4.20;1.60;;;;;;;;;;6252429;28;20044;-78
2023/07/30 06:16:20;;;;;;;5.63;1.83;;;;;;;;;;6248776;28;20068;-78
2023/07/30 06:19:22;;;;;;;3.50;2.15;;;;;;;;;;6253459;28;20052;-77
2023/07/30 06:22:24;;;;;;;3.50;1.90;;;;;;;;;;6253707;28;20126;-77
2023/07/30 06:25:25;;;;;;;3.10;1.60;;;;;;;;;;6252575;28;20048;-75
2023/07/30 06:28:27;;;;;;;3.97;1.80;;;;;;;;;;6244777;28;20372;-77
2023/07/30 06:31:29;;;;;;;4.53;1.80;;;;;;;;;;6240441;28;20106;-77
2023/07/30 06:34:30;;;;;;;4.80;1.63;;;;;;;;;;6249539;28;20500;-77
2023/07/30 06:37:32;;;;;;;3.25;1.90;;;;;;;;;;6246844;28;20136;-77
2023/07/30 06:40:34;;;;;;;5.25;1.90;;;;;;;;;;6242878;28;20053;-76
2023/07/30 06:43:36;;;;;;;3.30;1.60;;;;;;;;;;6251302;28;20126;-77
2023/07/30 06:46:37;;;;;;;4.35;2.00;;;;;;;;;;6248453;28;20072;-77
2023/07/30 06:49:39;;;;;;;3.60;1.70;;;;;;;;;;6245037;28;20451;-77
2023/07/30 06:52:41;;;;;;;4.88;1.60;;;;;;;;;;6248804;28;20594;-77
2023/07/30 06:55:43;;;;;;;2.53;1.42;;;;;;;;;;6249049;28;20111;-76
2023/07/30 06:58:44;;;;;;;6.93;1.60;;;;;;;;;;6242056;28;20659;-77
2023/07/30 07:01:46;;;;;;;3.95;2.03;;;;;;;;;;6247043;28;20982;-77
2023/07/30 07:04:48;;;;;;;3.58;1.48;;;;;;;;;;6253361;28;20041;-78
2023/07/30 07:07:49;;;;;;;2.95;1.83;;;;;;;;;;6250828;28;20049;-76
2023/07/30 07:10:51;;;;;;;3.67;1.88;;;;;;;;;;6250900;28;20511;-77
2023/07/30 07:13:53;;;;;;;3.60;1.90;;;;;;;;;;6251740;28;20041;-78
2023/07/30 07:16:57;;;;;;;4.63;1.70;;;;;;;;;;6257536;28;20064;-78
2023/07/30 07:19:59;;;;;;;3.30;1.60;;;;;;;;;;6255893;28;20067;-78
2023/07/30 07:23:01;;;;;;;3.30;1.88;;;;;;;;;;6252439;28;20037;-79
2023/07/30 07:26:02;;;;;;;4.80;1.85;;;;;;;;;;6251506;28;20044;-79
2023/07/30 07:29:04;;;;;;;3.90;1.80;;;;;;;;;;6256447;28;20056;-77
2023/07/30 07:32:10;;;;;;;6.93;1.75;;;;;;;;;;6261076;28;20049;-79
2023/07/30 07:35:13;;;;;;;4.47;2.10;;;;;;;;;;6256987;28;20049;-77
2023/07/30 07:38:14;;;;;;;6.60;1.90;;;;;;;;;;6250689;28;20151;-77
2023/07/30 07:41:17;;;;;;;3.55;1.80;;;;;;;;;;6264294;28;20049;-76
2023/07/30 07:44:19;;;;;;;2.85;1.63;;;;;;;;;;6273842;28;20071;-76
2023/07/30 07:47:20;;;;;;;4.88;1.80;;;;;;;;;;6280288;28;20051;-77
2023/07/30 07:50:22;;;;;;;2.40;1.80;;;;;;;;;;6265536;28;20056;-76
2023/07/30 07:53:24;;;;;;;5.65;2.00;;;;;;;;;;6270549;28;20551;-77
2023/07/30 07:56:43;;;;;;;3.50;1.70;;;;;;;;;;6276870;28;20040;-78
2023/07/30 08:00:05;;;;;;;6.18;1.88;;;;;;;;;;6200054;28;20050;-77
2023/07/30 08:03:38;;;;;;;5.05;1.83;;;;;;;;;;6213742;28;20039;-76
2023/07/30 08:06:54;;;;;;;7.40;1.95;;;;;;;;;;6195545;28;20061;-76
2023/07/30 08:10:01;;;;;;;10.25;2.20;;;;;;;;;;6197225;28;20038;-77
2023/07/30 08:13:03;;;;;;;5.78;2.00;;;;;;;;;;6208190;28;20050;-77
2023/07/30 08:16:04;;;;;;;3.85;2.15;;;;;;;;;;6212636;28;20073;-77
2023/07/30 08:19:06;;;;;;;5.07;1.88;;;;;;;;;;6260040;28;20083;-75
2023/07/30 08:22:08;;;;;;;3.63;1.70;;;;;;;;;;6261603;28;20204;-78
2023/07/30 08:25:09;;;;;;;3.00;1.50;;;;;;;;;;6277199;28;20049;-77
2023/07/30 08:28:11;;;;;;;3.70;1.77;;;;;;;;;;6275361;28;20068;-76
2023/07/30 08:31:13;;;;;;;3.78;1.55;;;;;;;;;;6276250;28;20086;-77
2023/07/30 08:34:14;;;;;;;6.97;1.80;;;;;;;;;;6276035;28;20068;-77
2023/07/30 08:37:16;;;;;;;5.00;1.83;;;;;;;;;;6262483;28;20518;-78
2023/07/30 08:40:21;;;;;;;5.13;1.63;;;;;;;;;;6258082;28;20131;-77
2023/07/30 08:43:23;;;;;;;3.95;1.70;;;;;;;;;;6258950;28;20053;-76
2023/07/30 08:46:25;;;;;;;5.03;1.85;;;;;;;;;;6255908;28;20049;-77
2023/07/30 08:49:32;;;;;;;6.03;1.92;;;;;;;;;;6254511;28;20048;-75
2023/07/30 08:52:35;;;;;;;7.95;1.85;;;;;;;;;;6257061;28;20045;-78
2023/07/30 08:55:40;;;;;;;4.32;2.28;;;;;;;;;;6254193;28;20052;-78
2023/07/30 08:58:43;;;;;;;6.75;2.00;;;;;;;;;;6232349;28;20068;-77
2023/07/30 09:01:46;;;;;;;4.63;1.70;;;;;;;;;;6237614;28;20053;-78
2023/07/30 09:04:53;;;;;;;4.70;1.83;;;;;;;;;;6255656;28;20073;-78
2023/07/30 09:07:58;;;;;;;4.38;1.83;;;;;;;;;;6255023;28;20111;-77
2023/07/30 09:11:09;;;;;;;3.22;1.77;;;;;;;;;;6249543;28;20127;-79
2023/07/30 09:14:11;;;;;;;2.65;1.75;;;;;;;;;;6248947;28;20052;-77
2023/07/30 09:17:19;;;;;;;3.97;1.48;;;;;;;;;;6249096;28;20051;-77
2023/07/30 09:20:21;;;;;;;2.35;1.40;;;;;;;;;;6248119;28;20134;-79
2023/07/30 09:23:22;;;;;;;4.65;1.83;;;;;;;;;;6243814;28;20055;-76
2023/07/30 09:26:24;;;;;;;3.75;1.80;;;;;;;;;;6248197;28;20071;-78
2023/07/30 09:29:26;;;;;;;4.75;1.88;;;;;;;;;;6251662;28;20072;-78
2023/07/30 09:32:29;;;;;;;4.18;1.55;;;;;;;;;;6243583;28;20045;-76
2023/07/30 09:35:33;;;;;;;3.38;1.60;;;;;;;;;;6249684;28;20037;-78
2023/07/30 09:38:42;;;;;;;3.33;1.58;;;;;;;;;;6250722;28;20171;-77
2023/07/30 09:41:44;;;;;;;2.50;1.42;;;;;;;;;;6229583;28;20052;-79
2023/07/30 09:44:48;;;;;;;2.53;1.60;;;;;;;;;;6240746;28;20045;-76
2023/07/30 09:47:50;;;;;;;2.78;1.50;;;;;;;;;;6248925;28;20072;-77
2023/07/30 09:50:53;;;;;;;2.38;1.10;;;;;;;;;;6230640;28;20045;-77
2023/07/30 09:53:55;;;;;;;2.15;1.15;;;;;;;;;;6247730;28;20087;-78
2023/07/30 09:56:56;;;;;;;2.50;1.27;;;;;;;;;;6240071;28;20091;-78
2023/07/30 09:59:58;;;;;;;2.33;1.20;;;;;;;;;;6250065;28;20045;-77
2023/07/30 10:03:06;;;;;;;1.20;1.10;;;;;;;;;;6255482;28;20270;-78
2023/07/30 10:06:11;;;;;;;2.92;1.17;;;;;;;;;;6252167;28;20068;-78
2023/07/30 10:09:15;;;;;;;1.80;1.10;;;;;;;;;;6258708;28;20088;-77
2023/07/30 10:12:23;;;;;;;3.85;1.10;;;;;;;;;;6270847;28;20155;-79
2023/07/30 10:15:25;;;;;;;1.65;1.30;;;;;;;;;;6251168;28;20074;-77
2023/07/30 10:18:40;;;;;;;1.42;1.00;;;;;;;;;;6247888;28;20045;-77
2023/07/30 10:21:42;;;;;;;3.35;1.20;;;;;;;;;;6256047;28;20132;-80
2023/07/30 10:25:42;;;;;;;1.58;1.40;;;;;;;;;;6253606;28;20067;-76
2023/07/30 10:28:44;;;;;;;1.67;1.10;;;;;;;;;;6149550;28;20045;-79
2023/07/30 10:31:55;;;;;;;2.55;1.48;;;;;;;;;;6251185;28;20049;-79
2023/07/30 10:34:57;;;;;;;3.53;1.05;;;;;;;;;;6250151;28;20111;-77
2023/07/30 10:37:59;;;;;;;2.83;1.20;;;;;;;;;;6251460;28;20507;-77
2023/07/30 10:41:08;;;;;;;2.78;1.20;;;;;;;;;;6243817;28;20126;-78
2023/07/30 10:44:33;;;;;;;2.50;1.08;;;;;;;;;;6251558;28;20049;-78
2023/07/30 10:47:35;;;;;;;3.08;1.42;;;;;;;;;;6247804;28;20590;-78
2023/07/30 10:50:38;;;;;;;;;;;;;;;;;;6250887;28;20400;-77
2023/07/30 10:53:43;;;;;;;5.97;1.30;;;;;;;;;;6251746;28;19925;-76
2023/07/30 10:56:45;;;;;;;3.70;1.70;;;;;;;;;;6240198;28;20045;-79
2023/07/30 10:59:46;;;;;;;5.53;1.50;;;;;;;;;;6259196;28;20037;-76
2023/07/30 11:02:55;;;;;;;3.83;1.40;;;;;;;;;;6255832;28;20041;-74
2023/07/30 11:05:57;;;;;;;2.47;1.30;;;;;;;;;;6252602;28;20052;-77
2023/07/30 11:08:59;;;;;;;4.33;1.37;;;;;;;;;;6252288;28;20049;-75
2023/07/30 11:12:00;;;;;;;4.18;1.20;;;;;;;;;;6242914;28;20179;-79
2023/07/30 11:15:03;;;;;;;5.25;1.30;;;;;;;;;;6250475;28;20049;-78
2023/07/30 11:18:04;;;;;;;4.80;1.67;;;;;;;;;;6248810;28;20045;-77
2023/07/30 11:21:12;;;;;;;4.03;1.40;;;;;;;;;;6246728;28;20057;-79
2023/07/30 11:24:14;;;;;;;3.70;1.42;;;;;;;;;;6248117;28;20107;-78
2023/07/30 11:27:16;;;;;;;4.93;1.58;;;;;;;;;;6242907;28;20068;-79
2023/07/30 11:30:19;;;;;;;4.30;1.40;;;;;;;;;;6252540;28;20136;-77
2023/07/30 11:33:20;;;;;;;;;;;;;;;;;;6255564;28;20052;-78
2023/07/30 11:36:25;;;;;;;2.88;1.40;;;;;;;;;;6263045;28;19929;-77
2023/07/30 11:39:28;;;;;;;5.18;1.30;;;;;;;;;;6255577;28;20064;-78
2023/07/30 11:42:31;;;;;;;3.13;1.27;;;;;;;;;;6254919;28;20648;-78
2023/07/30 11:45:32;;;;;;;4.35;1.42;;;;;;;;;;6246129;28;20056;-78
2023/07/30 11:48:35;;;;;;;5.30;1.55;;;;;;;;;;6240946;28;20060;-76
2023/07/30 11:51:37;;;;;;;;;;;;;;;;;;6258640;28;20040;-78
2023/07/30 11:54:39;;;;;;;7.40;1.42;;;;;;;;;;6243501;28;19956;-78
2023/07/30 11:57:40;;;;;;;8.18;1.40;;;;;;;;;;6255313;28;20049;-79
2023/07/30 12:00:43;;;;;;;4.80;1.40;;;;;;;;;;6227763;28;20048;-78
2023/07/30 12:03:45;;;;;;;;;;;;;;;;;;6259220;28;20080;-78
2023/07/30 12:06:48;;;;;;;2.72;1.15;;;;;;;;;;6252877;28;19921;-75
2023/07/30 12:09:50;;;;;;;3.70;1.00;;;;;;;;;;6257860;28;20049;-79
2023/07/30 12:12:52;;;;;;;4.20;1.30;;;;;;;;;;6255714;28;20045;-78
2023/07/30 12:15:55;;;;;;;2.00;1.20;;;;;;;;;;6262126;28;20071;-76
2023/07/30 12:18:57;;;;;;;5.03;1.30;;;;;;;;;;6258173;28;20080;-80
2023/07/30 12:21:59;;;;;;;4.80;1.27;;;;;;;;;;6238306;28;20297;-78
2023/07/30 12:25:03;;;;;;;4.30;1.27;;;;;;;;;;6252438;28;20044;-78
2023/07/30 12:28:05;;;;;;;5.03;1.30;;;;;;;;;;6252512;28;20080;-79
2023/07/30 12:31:06;;;;;;;4.57;1.30;;;;;;;;;;6253682;28;20049;-78
2023/07/30 12:34:08;;;;;;;3.88;1.17;;;;;;;;;;6251102;28;20130;-79
2023/07/30 12:37:10;;;;;;;4.53;1.10;;;;;;;;;;6252409;28;20830;-79
2023/07/30 12:40:11;;;;;;;2.70;1.00;;;;;;;;;;6239388;28;20037;-78
2023/07/30 12:43:13;;;;;;;3.92;1.30;;;;;;;;;;6248411;28;20130;-78
2023/07/30 12:46:15;;;;;;;5.07;1.17;;;;;;;;;;6252040;28;20045;-75
2023/07/30 12:49:16;;;;;;;4.38;1.13;;;;;;;;;;6254578;28;20045;-76
2023/07/30 12:52:18;;;;;;;2.45;0.95;;;;;;;;;;6245889;28;20037;-79
2023/07/30 12:55:20;;;;;;;5.20;1.33;;;;;;;;;;6249537;28;20393;-77
2023/07/30 12:58:21;;;;;;;5.00;1.00;;;;;;;;;;6245438;28;20589;-77
2023/07/30 13:01:23;;;;;;;3.23;0.90;;;;;;;;;;6232759;28;20078;-79
2023/07/30 13:04:28;;;;;;;4.20;0.97;;;;;;;;;;6242277;28;20041;-79
2023/07/30 13:07:30;;;;;;;3.17;1.27;;;;;;;;;;6230155;28;20773;-79
2023/07/30 13:10:31;;;;;;;3.30;1.10;;;;;;;;;;6249992;28;20080;-77
2023/07/30 13:13:33;;;;;;;1.92;1.05;;;;;;;;;;6228039;28;20041;-79
2023/07/30 13:16:35;;;;;;;3.88;1.00;;;;;;;;;;6247977;28;20049;-78
2023/07/30 13:19:36;;;;;;;3.35;1.10;;;;;;;;;;6254725;28;20534;-75
2023/07/30 13:22:38;;;;;;;4.32;1.35;;;;;;;;;;6260136;28;20052;-77
2023/07/30 13:25:40;;;;;;;2.00;0.98;;;;;;;;;;6231744;28;20041;-76
2023/07/30 13:28:41;;;;;;;4.72;1.38;;;;;;;;;;6232578;28;20069;-77
2023/07/30 13:31:43;;;;;;;4.28;1.05;;;;;;;;;;6257412;28;20462;-76
2023/07/30 13:34:45;;;;;;;2.15;0.70;;;;;;;;;;6241331;28;20060;-77
2023/07/30 13:37:46;;;;;;;4.13;0.65;;;;;;;;;;6247173;28;20802;-77
2023/07/30 13:40:50;;;;;;;2.38;0.93;;;;;;;;;;6252826;28;20045;-76
2023/07/30 13:43:52;;;;;;;3.42;0.98;;;;;;;;;;6257243;28;20037;-77
2023/07/30 13:46:55;;;;;;;3.15;1.10;;;;;;;;;;6257090;28;20783;-80
2023/07/30 13:50:02;;;;;;;3.97;1.10;;;;;;;;;;6251925;28;20120;-78
2023/07/30 13:53:04;;;;;;;3.17;0.98;;;;;;;;;;6241113;28;20091;-78
2023/07/30 13:56:06;;;;;;;3.00;1.20;;;;;;;;;;6239068;28;20461;-75
2023/07/30 13:59:08;;;;;;;2.38;0.90;;;;;;;;;;6246660;28;20053;-78
2023/07/30 14:02:10;;;;;;;3.93;1.07;;;;;;;;;;6257340;28;20475;-78
2023/07/30 14:05:12;;;;;;;4.97;1.23;;;;;;;;;;6238422;28;20495;-77
2023/07/30 14:08:14;;;;;;;3.70;1.20;;;;;;;;;;6253904;28;20047;-77
2023/07/30 14:11:15;;;;;;;3.38;1.10;;;;;;;;;;6259680;28;20049;-77
2023/07/30 14:14:17;;;;;;;7.60;1.10;;;;;;;;;;6266934;28;20051;-75
2023/07/30 14:17:19;;;;;;;2.72;0.95;;;;;;;;;;6241161;28;20056;-78
2023/07/30 14:20:20;;;;;;;3.30;1.30;;;;;;;;;;6261777;28;20041;-78
2023/07/30 14:23:22;;;;;;;4.10;0.90;;;;;;;;;;6278894;28;20439;-77
2023/07/30 14:26:23;;;;;;;2.28;1.30;;;;;;;;;;6257842;28;20106;-76
2023/07/30 14:29:25;;;;;;;4.35;0.90;;;;;;;;;;6258145;28;20042;-75
2023/07/30 14:32:27;;;;;;;3.03;1.13;;;;;;;;;;6252187;28;20542;-78
2023/07/30 14:35:29;;;;;;;3.90;1.30;;;;;;;;;;6256960;28;20053;-76
2023/07/30 14:38:33;;;;;;;5.65;1.25;;;;;;;;;;6257646;28;20106;-79
2023/07/30 14:41:35;;;;;;;6.95;1.20;;;;;;;;;;6232150;28;20041;-77
2023/07/30 14:44:38;;;;;;;2.85;1.17;;;;;;;;;;6254449;28;20499;-78
2023/07/30 14:47:40;;;;;;;2.72;1.10;;;;;;;;;;6254653;28;20052;-77
2023/07/30 14:50:41;;;;;;;4.65;1.30;;;;;;;;;;6253695;28;20052;-77
2023/07/30 14:53:43;;;;;;;2.08;0.98;;;;;;;;;;6253883;28;20083;-77
2023/07/30 14:56:44;;;;;;;3.58;1.13;;;;;;;;;;6254142;28;20044;-76
2023/07/30 14:59:46;;;;;;;3.17;1.65;;;;;;;;;;6254468;28;20128;-77
2023/07/30 15:02:48;;;;;;;3.17;1.30;;;;;;;;;;6256465;28;20056;-77
2023/07/30 15:05:50;;;;;;;4.70;1.10;;;;;;;;;;6253227;28;20091;-76
2023/07/30 15:08:52;;;;;;;5.18;1.40;;;;;;;;;;6250631;28;20045;-76
2023/07/30 15:11:54;;;;;;;2.70;1.40;;;;;;;;;;6247804;28;20045;-77
2023/07/30 15:14:55;;;;;;;2.35;1.73;;;;;;;;;;6251675;28;20049;-78
2023/07/30 15:17:57;;;;;;;3.05;1.40;;;;;;;;;;6240397;28;20076;-77
2023/07/30 15:20:59;;;;;;;3.72;1.40;;;;;;;;;;6249753;28;20086;-76
2023/07/30 15:24:01;;;;;;;3.88;1.27;;;;;;;;;;6249077;28;20061;-76
2023/07/30 15:27:02;;;;;;;3.23;1.13;;;;;;;;;;6252527;28;20040;-76
2023/07/30 15:30:05;;;;;;;3.00;1.30;;;;;;;;;;6248899;28;20095;-76
2023/07/30 15:33:10;;;;;;;2.20;0.90;;;;;;;;;;6251031;28;20165;-77
2023/07/30 15:36:11;;;;;;;5.65;1.00;;;;;;;;;;6248866;28;20432;-76
2023/07/30 15:39:13;;;;;;;3.35;1.25;;;;;;;;;;6252760;28;20588;-78
2023/07/30 15:42:15;;;;;;;3.28;1.20;;;;;;;;;;6245816;28;20084;-75
2023/07/30 15:45:17;;;;;;;4.15;1.15;;;;;;;;;;6244342;28;20072;-77
2023/07/30 15:48:19;;;;;;;5.18;1.10;;;;;;;;;;6237112;28;20564;-75
2023/07/30 15:51:21;;;;;;;4.43;1.10;;;;;;;;;;6249803;28;20530;-79
2023/07/30 15:54:36;;;;;;;2.03;0.73;;;;;;;;;;6247684;28;20052;-77
2023/07/30 15:57:38;;;;;;;3.05;1.20;;;;;;;;;;6241107;28;20052;-75
2023/07/30 16:00:40;;;;;;;1.92;0.90;;;;;;;;;;6249780;28;20045;-75
2023/07/30 16:03:41;;;;;;;1.92;0.88;;;;;;;;;;6247276;28;20452;-76
2023/07/30 16:06:43;;;;;;;3.55;1.10;;;;;;;;;;6240035;28;20060;-77
2023/07/30 16:09:45;;;;;;;1.55;1.00;;;;;;;;;;6249472;28;20667;-76
2023/07/30 16:12:46;;;;;;;3.10;1.08;;;;;;;;;;6250251;28;20059;-76
2023/07/30 16:15:48;;;;;;;2.70;0.90;;;;;;;;;;6246318;28;20049;-75
2023/07/30 16:18:50;;;;;;;3.30;1.10;;;;;;;;;;6247577;28;20048;-76
2023/07/30 16:21:51;;;;;;;3.00;0.95;;;;;;;;;;6248479;28;20048;-78
2023/07/30 16:24:53;;;;;;;3.53;1.23;;;;;;;;;;6253537;28;20399;-76
2023/07/30 16:27:55;;;;;;;1.37;0.90;;;;;;;;;;6245277;28;20061;-77
2023/07/30 16:30:56;;;;;;;3.00;1.20;;;;;;;;;;6252575;28;20053;-76
2023/07/30 16:33:58;;;;;;;3.92;1.20;;;;;;;;;;6239665;28;20033;-74
2023/07/30 16:37:00;;;;;;;3.60;1.00;;;;;;;;;;6248049;28;20254;-75
2023/07/30 16:40:02;;;;;;;3.63;1.30;;;;;;;;;;6246052;28;20522;-76
2023/07/30 16:43:04;;;;;;;1.63;0.90;;;;;;;;;;6248806;28;20815;-75
2023/07/30 16:46:06;;;;;;;1.63;1.02;;;;;;;;;;6255039;28;20498;-76
2023/07/30 16:49:08;;;;;;;2.67;0.97;;;;;;;;;;6250956;28;20422;-75
2023/07/30 16:52:10;;;;;;;2.92;0.90;;;;;;;;;;6235222;28;20053;-77
2023/07/30 16:55:11;;;;;;;2.42;1.08;;;;;;;;;;6251078;28;20048;-75
2023/07/30 16:58:13;;;;;;;3.03;1.02;;;;;;;;;;6251121;28;20045;-75
2023/07/30 17:01:15;;;;;;;1.52;0.90;;;;;;;;;;6244938;28;20134;-75
2023/07/30 17:04:16;;;;;;;1.98;1.00;;;;;;;;;;6250273;28;20034;-76
2023/07/30 17:07:19;;;;;;;1.50;0.80;;;;;;;;;;6245227;28;20056;-77
2023/07/30 17:10:20;;;;;;;3.42;1.05;;;;;;;;;;6243715;28;20057;-76
2023/07/30 17:13:23;;;;;;;2.65;1.08;;;;;;;;;;6254499;28;20052;-78
2023/07/30 17:16:24;;;;;;;3.22;1.08;;;;;;;;;;6255799;28;20041;-79
2023/07/30 17:19:26;;;;;;;5.00;1.20;;;;;;;;;;6243243;28;20067;-78
2023/07/30 17:22:30;;;;;;;4.22;1.10;;;;;;;;;;6253856;28;20108;-76
2023/07/30 17:25:31;;;;;;;3.38;1.02;;;;;;;;;;6245231;28;20133;-76
2023/07/30 17:28:33;;;;;;;3.00;1.00;;;;;;;;;;6252160;28;20052;-76
2023/07/30 17:31:35;;;;;;;1.65;0.90;;;;;;;;;;6256418;28;20045;-79
2023/07/30 17:34:36;;;;;;;3.60;1.20;;;;;;;;;;6260287;28;20044;-78
2023/07/30 17:37:38;;;;;;;1.80;0.98;;;;;;;;;;6258073;28;20461;-77
2023/07/30 17:40:39;;;;;;;2.05;0.90;;;;;;;;;;6262540;28;20041;-79
2023/07/30 17:43:41;;;;;;;2.47;1.05;;;;;;;;;;6256526;28;20056;-77
2023/07/30 17:46:43;;;;;;;2.30;1.35;;;;;;;;;;6241776;28;20045;-79
2023/07/30 17:49:49;;;;;;;2.92;0.93;;;;;;;;;;6244336;28;20060;-78
2023/07/30 17:52:51;;;;;;;2.95;1.00;;;;;;;;;;6262811;28;20044;-76
2023/07/30 17:55:53;;;;;;;3.38;1.08;;;;;;;;;;6269349;28;20061;-76
2023/07/30 17:58:55;;;;;;;2.63;0.93;;;;;;;;;;6270454;28;20056;-80
2023/07/30 18:01:56;;;;;;;2.47;1.27;;;;;;;;;;6261356;28;20068;-78
2023/07/30 18:04:58;;;;;;;2.72;1.08;;;;;;;;;;6243803;28;20041;-78
2023/07/30 18:08:03;;;;;;;4.95;1.30;;;;;;;;;;6257456;28;20448;-80
2023/07/30 18:11:07;;;;;;;4.00;1.40;;;;;;;;;;6258911;28;20049;-79
2023/07/30 18:14:09;;;;;;;2.70;0.90;;;;;;;;;;6269590;28;20049;-77